Time;durP1;ratioP1;P1;durP2;ratioP2;P2;SDS_P1;SDS_P2;PMS_P1;PMS_P2;Temp;Humidity;BMP_temperature;BMP_pressure;BME280_temperature;BME280_humidity;BME280_pressure;Samples;Min_cycle;Max_cycle;Signal;HPM_P1;HPM_P2
2021/10/28 00:16:21;;;;;;;19.57;14.30;;;;;;;6.84;71.96;95348.93;835365;70;29813;-83
2021/10/28 00:31:09;;;;;;;22.00;15.63;;;;;;;6.70;71.74;95351.09;834754;71;30291;-79
2021/10/28 00:46:12;;;;;;;19.12;14.55;;;;;;;6.65;71.71;95345.80;828459;71;32027;-78
2021/10/28 01:01:09;;;;;;;20.97;15.60;;;;;;;6.49;71.15;95329.16;827594;71;29882;-77
2021/10/28 01:16:14;;;;;;;25.90;15.95;;;;;;;6.44;71.29;95312.17;833450;71;32970;-78
2021/10/28 01:31:15;;;;;;;20.82;15.15;;;;;;;6.43;71.25;95308.78;827037;71;33383;-78
2021/10/28 01:46:09;;;;;;;23.57;16.37;;;;;;;6.35;71.22;95302.16;827582;71;30283;-76
2021/10/28 02:01:19;;;;;;;23.50;16.02;;;;;;;6.31;71.85;95306.27;833325;71;33209;-80
2021/10/28 02:16:09;;;;;;;21.93;15.15;;;;;;;6.17;71.13;95303.22;827439;71;30108;-75
2021/10/28 02:31:08;;;;;;;19.40;14.38;;;;;;;6.16;71.76;95287.81;827822;71;30266;-79
2021/10/28 02:46:31;;;;;;;19.32;15.72;;;;;;;6.15;71.92;95296.67;827105;71;32856;-77
2021/10/28 03:16:28;;;;;;;26.93;18.27;;;;;;;5.89;71.40;95326.73;822005;71;32133;-77
2021/10/28 03:31:08;;;;;;;25.85;17.92;;;;;;;5.81;71.13;95329.98;820724;71;30537;-79
2021/10/28 03:46:39;;;;;;;28.02;17.17;;;;;;;5.77;71.12;95335.39;819401;71;29413;-77
2021/10/28 04:16:39;;;;;;;28.23;19.52;;;;;;;5.56;72.38;95332.20;827756;71;30237;-76
2021/10/28 04:31:14;;;;;;;31.93;20.97;;;;;;;5.43;72.56;95346.27;827303;71;33128;-76
2021/10/28 04:46:09;;;;;;;39.25;21.35;;;;;;;5.34;72.35;95363.30;827793;71;30304;-77
2021/10/28 05:01:08;;;;;;;37.73;22.00;;;;;;;5.42;73.01;95364.23;830277;71;29731;-75
2021/10/28 05:16:09;;;;;;;34.43;20.75;;;;;;;5.32;72.52;95364.83;834248;71;30352;-77
2021/10/28 05:31:17;;;;;;;40.43;23.18;;;;;;;5.31;73.26;95378.06;826900;71;32694;-77
2021/10/28 05:46:15;;;;;;;37.75;24.07;;;;;;;5.84;73.40;95402.97;827196;71;32766;-77
2021/10/28 06:01:08;;;;;;;32.90;23.35;;;;;;;6.61;72.35;95412.01;827756;71;29951;-76
2021/10/28 06:16:14;;;;;;;37.15;26.73;;;;;;;7.79;70.00;95402.42;833815;71;32722;-78
2021/10/28 06:31:16;;;;;;;33.53;24.77;;;;;;;11.08;61.62;95393.80;833754;71;32708;-77
2021/10/28 06:46:14;;;;;;;26.40;21.02;;;;;;;13.96;53.71;95390.23;827115;71;32674;-78
2021/10/28 07:16:22;;;;;;;36.93;28.15;;;;;;;15.32;47.82;95395.08;821014;71;30846;-79
2021/10/28 08:31:10;;;;;;;31.93;25.20;;;;;;;17.25;45.17;95370.17;828003;71;30292;-76
2021/10/28 08:46:16;;;;;;;30.85;26.45;;;;;;;18.63;43.82;95359.34;827609;71;32634;-75
2021/10/28 09:31:14;;;;;;;31.97;27.45;;;;;;;19.37;41.00;95332.06;826548;71;29810;-76
2021/10/28 09:46:17;;;;;;;29.92;25.02;;;;;;;20.33;39.53;95312.66;820549;71;30383;-76
2021/10/28 10:01:11;;;;;;;30.48;26.55;;;;;;;19.65;39.07;95296.93;833430;71;30194;-76
2021/10/28 10:16:11;;;;;;;31.45;26.48;;;;;;;20.72;38.71;95275.86;827800;71;30293;-78
2021/10/28 12:46:25;;;;;;;6.53;4.70;;;;;;;16.85;31.63;95109.09;818574;71;33423;-77
2021/10/28 16:01:45;;;;;;;11.28;8.93;;;;;;;12.23;42.58;95109.56;819781;71;32166;-80
2021/10/28 16:31:09;;;;;;;10.95;7.45;;;;;;;11.92;42.66;95125.71;818870;71;29922;-77
2021/10/28 16:46:15;;;;;;;8.98;8.08;;;;;;;11.56;46.75;95135.23;826399;71;32739;-77
2021/10/28 17:01:10;;;;;;;12.95;8.03;;;;;;;11.00;49.75;95150.14;827496;71;29721;-77
2021/10/28 17:16:09;;;;;;;14.43;9.38;;;;;;;10.76;51.10;95145.55;827704;71;30081;-76
2021/10/28 17:31:15;;;;;;;14.20;9.43;;;;;;;10.52;51.72;95142.02;833209;71;32717;-77
2021/10/28 17:46:18;;;;;;;16.82;10.23;;;;;;;;;;832744;71;32725;-79
2021/10/28 18:01:11;;;;;;;13.00;9.28;;;;;;;;;;820669;71;32076;-80
2021/10/28 18:16:08;;;;;;;12.00;8.83;;;;;;;;;;818927;71;29594;-78
2021/10/28 18:31:08;;;;;;;9.03;7.53;;;;;;;9.73;56.46;95184.50;820275;71;29730;-76
2021/10/28 18:46:11;;;;;;;11.97;8.80;;;;;;;9.74;56.40;95189.20;824406;71;30050;-76
2021/10/28 19:01:15;;;;;;;11.60;8.68;;;;;;;9.52;57.50;95186.33;819298;71;32097;-79
2021/10/28 19:16:16;;;;;;;14.33;9.75;;;;;;;9.26;56.98;95145.49;818186;71;32865;-78
2021/10/28 19:31:18;;;;;;;16.85;12.93;;;;;;;9.57;56.87;95208.61;820602;71;29820;-75
2021/10/28 19:46:14;;;;;;;20.70;12.63;;;;;;;9.52;56.39;95224.84;827222;71;32795;-79
2021/10/28 20:31:19;;;;;;;23.52;17.67;;;;;;;9.17;56.97;95230.33;834862;71;32845;-80
2021/10/28 20:46:20;;;;;;;32.00;21.07;;;;;;;9.03;58.14;95221.66;833313;71;33208;-77
2021/10/28 21:16:15;;;;;;;25.25;17.10;;;;;;;8.75;60.53;95203.28;826869;71;33101;-77
2021/10/28 21:31:15;;;;;;;22.52;14.00;;;;;;;8.68;61.21;95213.22;826847;71;33327;-78
2021/10/28 21:46:09;;;;;;;15.08;11.60;;;;;;;8.63;61.82;95221.81;833078;71;30628;-75
2021/10/28 22:31:25;;;;;;;16.70;11.40;;;;;;;8.46;63.65;95204.77;827286;71;30365;-76
2021/10/28 22:46:09;;;;;;;18.70;12.80;;;;;;;8.39;64.57;95191.89;833402;71;30234;-77
2021/10/28 23:01:27;;;;;;;20.00;12.18;;;;;;;8.30;64.76;95182.98;826498;71;33028;-76
2021/10/28 23:31:08;;;;;;;18.10;12.50;;;;;;;8.13;65.85;95181.34;833299;71;30565;-78
2021/10/28 23:46:09;;;;;;;15.40;11.60;;;;;;;8.07;66.02;95216.33;827651;71;29295;-77
